sensor_id;sensor_type;location;lat;lon;timestamp;temperature;humidity
55064;DHT22;40963;52.168;21.296;2023-04-03T00:01:28;2.60;96.20
55064;DHT22;40963;52.168;21.296;2023-04-03T00:03:54;2.60;96.20
55064;DHT22;40963;52.168;21.296;2023-04-03T00:06:21;2.50;96.00
55064;DHT22;40963;52.168;21.296;2023-04-03T00:08:47;2.50;95.90
55064;DHT22;40963;52.168;21.296;2023-04-03T00:11:13;2.40;95.70
55064;DHT22;40963;52.168;21.296;2023-04-03T00:13:39;2.40;95.80
55064;DHT22;40963;52.168;21.296;2023-04-03T00:16:06;2.40;96.00
55064;DHT22;40963;52.168;21.296;2023-04-03T00:18:32;2.40;95.50
55064;DHT22;40963;52.168;21.296;2023-04-03T00:20:58;2.30;95.50
55064;DHT22;40963;52.168;21.296;2023-04-03T00:23:23;2.30;95.40
55064;DHT22;40963;52.168;21.296;2023-04-03T00:25:50;2.30;95.30
55064;DHT22;40963;52.168;21.296;2023-04-03T00:28:16;2.20;95.20
55064;DHT22;40963;52.168;21.296;2023-04-03T00:30:41;2.20;95.10
55064;DHT22;40963;52.168;21.296;2023-04-03T00:33:08;2.10;95.20
55064;DHT22;40963;52.168;21.296;2023-04-03T00:35:35;2.10;94.70
55064;DHT22;40963;52.168;21.296;2023-04-03T00:38:00;2.00;94.60
55064;DHT22;40963;52.168;21.296;2023-04-03T00:40:27;2.00;94.70
55064;DHT22;40963;52.168;21.296;2023-04-03T00:42:58;1.90;94.70
55064;DHT22;40963;52.168;21.296;2023-04-03T00:45:29;1.90;94.70
55064;DHT22;40963;52.168;21.296;2023-04-03T00:47:57;1.90;94.60
55064;DHT22;40963;52.168;21.296;2023-04-03T00:50:26;1.80;94.50
55064;DHT22;40963;52.168;21.296;2023-04-03T00:52:52;1.80;94.50
55064;DHT22;40963;52.168;21.296;2023-04-03T00:55:19;1.70;94.50
55064;DHT22;40963;52.168;21.296;2023-04-03T00:57:46;1.70;94.50
55064;DHT22;40963;52.168;21.296;2023-04-03T01:00:15;1.70;94.30
55064;DHT22;40963;52.168;21.296;2023-04-03T01:02:41;1.60;94.20
55064;DHT22;40963;52.168;21.296;2023-04-03T01:05:07;1.60;94.20
55064;DHT22;40963;52.168;21.296;2023-04-03T01:07:33;1.50;94.10
55064;DHT22;40963;52.168;21.296;2023-04-03T01:10:04;1.50;94.00
55064;DHT22;40963;52.168;21.296;2023-04-03T01:12:36;1.40;93.80
55064;DHT22;40963;52.168;21.296;2023-04-03T01:15:06;1.40;93.50
55064;DHT22;40963;52.168;21.296;2023-04-03T01:17:41;1.40;93.40
55064;DHT22;40963;52.168;21.296;2023-04-03T01:25:47;1.30;93.00
55064;DHT22;40963;52.168;21.296;2023-04-03T01:28:23;1.20;93.10
55064;DHT22;40963;52.168;21.296;2023-04-03T01:31:12;1.20;93.10
55064;DHT22;40963;52.168;21.296;2023-04-03T01:33:38;1.20;93.20
55064;DHT22;40963;52.168;21.296;2023-04-03T01:36:04;1.10;93.00
55064;DHT22;40963;52.168;21.296;2023-04-03T01:38:30;1.10;92.60
55064;DHT22;40963;52.168;21.296;2023-04-03T01:40:56;1.10;92.60
55064;DHT22;40963;52.168;21.296;2023-04-03T01:43:22;1.00;92.40
55064;DHT22;40963;52.168;21.296;2023-04-03T01:45:48;1.10;92.50
55064;DHT22;40963;52.168;21.296;2023-04-03T01:48:15;1.00;92.30
55064;DHT22;40963;52.168;21.296;2023-04-03T01:50:41;1.00;92.30
55064;DHT22;40963;52.168;21.296;2023-04-03T01:53:07;0.90;92.20
55064;DHT22;40963;52.168;21.296;2023-04-03T01:55:33;0.90;92.50
55064;DHT22;40963;52.168;21.296;2023-04-03T01:57:58;0.90;92.20
55064;DHT22;40963;52.168;21.296;2023-04-03T02:00:24;0.90;92.20
55064;DHT22;40963;52.168;21.296;2023-04-03T02:02:50;0.90;92.10
55064;DHT22;40963;52.168;21.296;2023-04-03T02:05:15;0.80;92.00
55064;DHT22;40963;52.168;21.296;2023-04-03T02:07:41;0.80;91.90
55064;DHT22;40963;52.168;21.296;2023-04-03T02:10:07;0.80;91.90
55064;DHT22;40963;52.168;21.296;2023-04-03T02:12:33;0.80;91.90
55064;DHT22;40963;52.168;21.296;2023-04-03T02:14:58;0.70;91.80
55064;DHT22;40963;52.168;21.296;2023-04-03T02:17:24;0.70;91.60
55064;DHT22;40963;52.168;21.296;2023-04-03T02:19:50;0.70;91.50
55064;DHT22;40963;52.168;21.296;2023-04-03T02:22:15;0.70;91.50
55064;DHT22;40963;52.168;21.296;2023-04-03T02:24:41;0.60;91.40
55064;DHT22;40963;52.168;21.296;2023-04-03T02:27:07;0.60;91.50
55064;DHT22;40963;52.168;21.296;2023-04-03T02:29:32;0.60;91.50
55064;DHT22;40963;52.168;21.296;2023-04-03T02:31:58;0.60;91.50
55064;DHT22;40963;52.168;21.296;2023-04-03T02:34:24;0.60;91.40
55064;DHT22;40963;52.168;21.296;2023-04-03T02:36:50;0.60;91.40
55064;DHT22;40963;52.168;21.296;2023-04-03T02:39:15;0.60;91.30
55064;DHT22;40963;52.168;21.296;2023-04-03T02:41:42;0.50;91.30
55064;DHT22;40963;52.168;21.296;2023-04-03T02:44:10;0.50;91.40
55064;DHT22;40963;52.168;21.296;2023-04-03T02:46:36;0.50;91.20
55064;DHT22;40963;52.168;21.296;2023-04-03T02:49:02;0.50;91.40
55064;DHT22;40963;52.168;21.296;2023-04-03T02:51:28;0.40;91.50
55064;DHT22;40963;52.168;21.296;2023-04-03T02:53:53;0.40;91.60
55064;DHT22;40963;52.168;21.296;2023-04-03T02:56:19;0.40;91.70
55064;DHT22;40963;52.168;21.296;2023-04-03T02:58:45;0.40;91.70
55064;DHT22;40963;52.168;21.296;2023-04-03T03:01:11;0.30;91.70
55064;DHT22;40963;52.168;21.296;2023-04-03T03:03:37;0.30;91.80
55064;DHT22;40963;52.168;21.296;2023-04-03T03:06:15;0.30;91.80
55064;DHT22;40963;52.168;21.296;2023-04-03T03:08:41;0.20;91.80
55064;DHT22;40963;52.168;21.296;2023-04-03T03:11:08;0.30;91.90
55064;DHT22;40963;52.168;21.296;2023-04-03T03:13:33;0.20;91.90
55064;DHT22;40963;52.168;21.296;2023-04-03T03:16:00;0.20;91.90
55064;DHT22;40963;52.168;21.296;2023-04-03T03:18:26;0.20;91.90
55064;DHT22;40963;52.168;21.296;2023-04-03T03:20:56;0.10;92.00
55064;DHT22;40963;52.168;21.296;2023-04-03T03:23:24;0.10;92.00
55064;DHT22;40963;52.168;21.296;2023-04-03T03:25:55;0.10;92.00
55064;DHT22;40963;52.168;21.296;2023-04-03T03:28:20;0.10;92.00
55064;DHT22;40963;52.168;21.296;2023-04-03T03:30:46;0.00;91.90
55064;DHT22;40963;52.168;21.296;2023-04-03T03:33:12;0.00;92.00
55064;DHT22;40963;52.168;21.296;2023-04-03T03:35:38;0.00;92.10
55064;DHT22;40963;52.168;21.296;2023-04-03T03:38:03;0.00;92.20
55064;DHT22;40963;52.168;21.296;2023-04-03T03:40:29;0.00;92.30
55064;DHT22;40963;52.168;21.296;2023-04-03T03:42:54;-0.10;92.40
55064;DHT22;40963;52.168;21.296;2023-04-03T03:45:20;-0.10;92.40
55064;DHT22;40963;52.168;21.296;2023-04-03T03:47:46;-0.10;92.50
55064;DHT22;40963;52.168;21.296;2023-04-03T03:50:11;-0.10;92.60
55064;DHT22;40963;52.168;21.296;2023-04-03T03:52:37;-0.10;92.70
55064;DHT22;40963;52.168;21.296;2023-04-03T03:55:04;-0.20;92.70
55064;DHT22;40963;52.168;21.296;2023-04-03T03:57:30;-0.20;92.80
55064;DHT22;40963;52.168;21.296;2023-04-03T03:59:56;-0.20;92.90
55064;DHT22;40963;52.168;21.296;2023-04-03T04:02:21;-0.20;93.10
55064;DHT22;40963;52.168;21.296;2023-04-03T04:04:47;-0.20;93.30
55064;DHT22;40963;52.168;21.296;2023-04-03T04:07:13;-0.30;93.40
55064;DHT22;40963;52.168;21.296;2023-04-03T04:09:39;-0.30;93.50
55064;DHT22;40963;52.168;21.296;2023-04-03T04:12:05;-0.30;93.60
55064;DHT22;40963;52.168;21.296;2023-04-03T04:14:31;-0.30;93.80
55064;DHT22;40963;52.168;21.296;2023-04-03T04:16:57;-0.30;93.90
55064;DHT22;40963;52.168;21.296;2023-04-03T04:19:22;-0.40;94.20
55064;DHT22;40963;52.168;21.296;2023-04-03T04:21:48;-0.40;94.20
55064;DHT22;40963;52.168;21.296;2023-04-03T04:24:14;-0.40;94.30
55064;DHT22;40963;52.168;21.296;2023-04-03T04:26:40;-0.40;94.40
55064;DHT22;40963;52.168;21.296;2023-04-03T04:29:05;-0.40;94.50
55064;DHT22;40963;52.168;21.296;2023-04-03T04:31:31;-0.40;94.60
55064;DHT22;40963;52.168;21.296;2023-04-03T04:33:57;-0.40;94.70
55064;DHT22;40963;52.168;21.296;2023-04-03T04:36:22;-0.40;94.80
55064;DHT22;40963;52.168;21.296;2023-04-03T04:38:48;-0.40;94.90
55064;DHT22;40963;52.168;21.296;2023-04-03T04:41:14;-0.40;94.90
55064;DHT22;40963;52.168;21.296;2023-04-03T04:43:40;-0.50;94.90
55064;DHT22;40963;52.168;21.296;2023-04-03T04:46:08;-0.50;94.80
55064;DHT22;40963;52.168;21.296;2023-04-03T04:48:35;-0.50;94.90
55064;DHT22;40963;52.168;21.296;2023-04-03T04:51:01;-0.40;95.10
55064;DHT22;40963;52.168;21.296;2023-04-03T04:53:26;-0.40;95.10
55064;DHT22;40963;52.168;21.296;2023-04-03T04:55:53;-0.50;95.10
55064;DHT22;40963;52.168;21.296;2023-04-03T04:58:18;-0.50;95.00
55064;DHT22;40963;52.168;21.296;2023-04-03T05:00:45;-0.40;95.00
55064;DHT22;40963;52.168;21.296;2023-04-03T05:03:10;-0.50;95.00
55064;DHT22;40963;52.168;21.296;2023-04-03T05:05:36;-0.50;94.90
55064;DHT22;40963;52.168;21.296;2023-04-03T05:08:02;-0.50;95.00
55064;DHT22;40963;52.168;21.296;2023-04-03T05:10:28;-0.50;95.10
55064;DHT22;40963;52.168;21.296;2023-04-03T05:12:54;-0.50;94.90
55064;DHT22;40963;52.168;21.296;2023-04-03T05:15:20;-0.50;94.80
55064;DHT22;40963;52.168;21.296;2023-04-03T05:17:45;-0.50;94.80
55064;DHT22;40963;52.168;21.296;2023-04-03T05:20:11;-0.50;94.90
55064;DHT22;40963;52.168;21.296;2023-04-03T05:22:37;-0.50;94.90
55064;DHT22;40963;52.168;21.296;2023-04-03T05:25:04;-0.50;94.80
55064;DHT22;40963;52.168;21.296;2023-04-03T05:27:30;-0.50;95.00
55064;DHT22;40963;52.168;21.296;2023-04-03T05:29:55;-0.50;94.80
55064;DHT22;40963;52.168;21.296;2023-04-03T05:32:24;-0.50;94.70
55064;DHT22;40963;52.168;21.296;2023-04-03T05:34:51;-0.40;94.60
55064;DHT22;40963;52.168;21.296;2023-04-03T05:37:17;-0.40;94.30
55064;DHT22;40963;52.168;21.296;2023-04-03T05:39:43;-0.40;94.50
55064;DHT22;40963;52.168;21.296;2023-04-03T05:42:08;-0.40;94.50
55064;DHT22;40963;52.168;21.296;2023-04-03T05:44:34;-0.30;94.20
55064;DHT22;40963;52.168;21.296;2023-04-03T05:47:00;-0.30;94.00
55064;DHT22;40963;52.168;21.296;2023-04-03T05:49:26;-0.30;94.10
55064;DHT22;40963;52.168;21.296;2023-04-03T05:51:52;-0.30;93.90
55064;DHT22;40963;52.168;21.296;2023-04-03T05:54:23;-0.20;93.90
55064;DHT22;40963;52.168;21.296;2023-04-03T05:56:50;-0.20;93.60
55064;DHT22;40963;52.168;21.296;2023-04-03T05:59:16;-0.20;93.30
55064;DHT22;40963;52.168;21.296;2023-04-03T06:01:42;-0.10;93.30
55064;DHT22;40963;52.168;21.296;2023-04-03T06:04:08;-0.10;93.40
55064;DHT22;40963;52.168;21.296;2023-04-03T06:06:57;0.00;92.70
55064;DHT22;40963;52.168;21.296;2023-04-03T06:09:26;0.00;92.50
55064;DHT22;40963;52.168;21.296;2023-04-03T06:11:53;0.10;92.20
55064;DHT22;40963;52.168;21.296;2023-04-03T06:14:18;0.20;92.00
55064;DHT22;40963;52.168;21.296;2023-04-03T06:16:45;0.30;91.60
55064;DHT22;40963;52.168;21.296;2023-04-03T06:19:11;0.40;91.80
55064;DHT22;40963;52.168;21.296;2023-04-03T06:21:37;0.40;90.50
55064;DHT22;40963;52.168;21.296;2023-04-03T06:24:04;0.40;90.30
55064;DHT22;40963;52.168;21.296;2023-04-03T06:26:30;0.50;90.10
55064;DHT22;40963;52.168;21.296;2023-04-03T06:28:56;0.50;89.50
55064;DHT22;40963;52.168;21.296;2023-04-03T06:31:22;0.60;89.10
55064;DHT22;40963;52.168;21.296;2023-04-03T06:33:47;0.70;89.00
55064;DHT22;40963;52.168;21.296;2023-04-03T06:36:13;0.70;88.30
55064;DHT22;40963;52.168;21.296;2023-04-03T06:38:39;0.70;87.50
55064;DHT22;40963;52.168;21.296;2023-04-03T06:41:05;0.80;87.10
55064;DHT22;40963;52.168;21.296;2023-04-03T06:43:31;0.80;86.30
55064;DHT22;40963;52.168;21.296;2023-04-03T06:45:57;0.90;86.10
55064;DHT22;40963;52.168;21.296;2023-04-03T06:48:23;1.00;85.80
55064;DHT22;40963;52.168;21.296;2023-04-03T06:50:49;1.00;85.70
55064;DHT22;40963;52.168;21.296;2023-04-03T06:53:14;1.10;85.90
55064;DHT22;40963;52.168;21.296;2023-04-03T06:55:40;1.10;84.30
55064;DHT22;40963;52.168;21.296;2023-04-03T06:58:07;1.20;84.00
55064;DHT22;40963;52.168;21.296;2023-04-03T07:00:33;1.20;82.80
55064;DHT22;40963;52.168;21.296;2023-04-03T07:02:59;1.20;82.30
55064;DHT22;40963;52.168;21.296;2023-04-03T07:05:25;1.20;82.30
55064;DHT22;40963;52.168;21.296;2023-04-03T07:07:52;1.30;82.30
55064;DHT22;40963;52.168;21.296;2023-04-03T07:10:18;1.30;82.50
55064;DHT22;40963;52.168;21.296;2023-04-03T07:12:43;1.40;82.40
55064;DHT22;40963;52.168;21.296;2023-04-03T07:15:10;1.50;82.60
55064;DHT22;40963;52.168;21.296;2023-04-03T07:17:35;1.60;80.70
55064;DHT22;40963;52.168;21.296;2023-04-03T07:20:02;1.60;80.10
55064;DHT22;40963;52.168;21.296;2023-04-03T07:22:29;1.60;80.00
55064;DHT22;40963;52.168;21.296;2023-04-03T07:24:55;1.70;80.20
55064;DHT22;40963;52.168;21.296;2023-04-03T07:27:21;1.70;79.40
55064;DHT22;40963;52.168;21.296;2023-04-03T07:29:46;1.80;79.30
55064;DHT22;40963;52.168;21.296;2023-04-03T07:32:14;1.80;78.70
55064;DHT22;40963;52.168;21.296;2023-04-03T07:34:40;1.90;79.40
55064;DHT22;40963;52.168;21.296;2023-04-03T07:37:06;2.00;78.70
55064;DHT22;40963;52.168;21.296;2023-04-03T07:39:32;2.10;77.50
55064;DHT22;40963;52.168;21.296;2023-04-03T07:41:58;2.10;76.00
55064;DHT22;40963;52.168;21.296;2023-04-03T07:44:24;2.20;76.50
55064;DHT22;40963;52.168;21.296;2023-04-03T07:46:50;2.20;76.50
55064;DHT22;40963;52.168;21.296;2023-04-03T07:49:16;2.20;74.90
55064;DHT22;40963;52.168;21.296;2023-04-03T07:51:43;2.30;76.00
55064;DHT22;40963;52.168;21.296;2023-04-03T07:54:09;2.40;75.50
55064;DHT22;40963;52.168;21.296;2023-04-03T07:56:35;2.50;75.60
55064;DHT22;40963;52.168;21.296;2023-04-03T07:59:01;2.50;74.60
55064;DHT22;40963;52.168;21.296;2023-04-03T08:01:27;2.60;74.50
55064;DHT22;40963;52.168;21.296;2023-04-03T08:03:53;2.70;73.40
55064;DHT22;40963;52.168;21.296;2023-04-03T08:06:18;2.70;72.50
55064;DHT22;40963;52.168;21.296;2023-04-03T08:08:44;2.80;73.10
55064;DHT22;40963;52.168;21.296;2023-04-03T08:11:11;2.80;72.60
55064;DHT22;40963;52.168;21.296;2023-04-03T08:13:37;2.90;71.80
55064;DHT22;40963;52.168;21.296;2023-04-03T08:16:11;2.90;70.60
55064;DHT22;40963;52.168;21.296;2023-04-03T08:18:38;2.90;69.40
55064;DHT22;40963;52.168;21.296;2023-04-03T08:21:09;3.00;69.60
55064;DHT22;40963;52.168;21.296;2023-04-03T08:23:35;3.00;67.50
55064;DHT22;40963;52.168;21.296;2023-04-03T08:26:08;3.00;67.00
55064;DHT22;40963;52.168;21.296;2023-04-03T08:28:34;3.10;67.70
55064;DHT22;40963;52.168;21.296;2023-04-03T08:31:05;3.10;66.40
55064;DHT22;40963;52.168;21.296;2023-04-03T08:33:32;3.20;66.20
55064;DHT22;40963;52.168;21.296;2023-04-03T08:35:58;3.20;65.40
55064;DHT22;40963;52.168;21.296;2023-04-03T08:38:25;3.30;66.00
55064;DHT22;40963;52.168;21.296;2023-04-03T08:41:29;3.30;65.90
55064;DHT22;40963;52.168;21.296;2023-04-03T08:49:39;3.60;63.70
55064;DHT22;40963;52.168;21.296;2023-04-03T08:52:11;3.60;61.80
55064;DHT22;40963;52.168;21.296;2023-04-03T08:57:12;3.60;60.00
55064;DHT22;40963;52.168;21.296;2023-04-03T08:59:39;3.60;61.60
55064;DHT22;40963;52.168;21.296;2023-04-03T09:04:49;3.70;60.80
55064;DHT22;40963;52.168;21.296;2023-04-03T09:07:24;3.80;61.50
55064;DHT22;40963;52.168;21.296;2023-04-03T09:09:51;3.80;62.00
55064;DHT22;40963;52.168;21.296;2023-04-03T09:12:33;4.00;62.30
55064;DHT22;40963;52.168;21.296;2023-04-03T09:15:07;4.10;60.50
55064;DHT22;40963;52.168;21.296;2023-04-03T09:17:58;4.00;60.20
55064;DHT22;40963;52.168;21.296;2023-04-03T09:26:04;4.10;59.90
55064;DHT22;40963;52.168;21.296;2023-04-03T09:28:35;4.20;59.80
55064;DHT22;40963;52.168;21.296;2023-04-03T09:31:53;4.30;61.00
55064;DHT22;40963;52.168;21.296;2023-04-03T09:34:02;4.40;60.00
55064;DHT22;40963;52.168;21.296;2023-04-03T09:36:44;4.50;59.20
55064;DHT22;40963;52.168;21.296;2023-04-03T09:39:14;4.50;59.40
55064;DHT22;40963;52.168;21.296;2023-04-03T09:41:41;4.60;60.30
55064;DHT22;40963;52.168;21.296;2023-04-03T09:44:22;4.70;58.50
55064;DHT22;40963;52.168;21.296;2023-04-03T09:46:48;4.70;58.40
55064;DHT22;40963;52.168;21.296;2023-04-03T09:49:14;4.50;57.40
55064;DHT22;40963;52.168;21.296;2023-04-03T09:51:40;4.30;57.10
55064;DHT22;40963;52.168;21.296;2023-04-03T09:56:53;4.10;59.80
55064;DHT22;40963;52.168;21.296;2023-04-03T09:59:19;4.10;60.10
55064;DHT22;40963;52.168;21.296;2023-04-03T10:01:59;4.30;60.10
55064;DHT22;40963;52.168;21.296;2023-04-03T10:04:25;4.40;60.10
55064;DHT22;40963;52.168;21.296;2023-04-03T10:07:01;4.50;59.30
55064;DHT22;40963;52.168;21.296;2023-04-03T10:09:29;4.50;58.00
55064;DHT22;40963;52.168;21.296;2023-04-03T10:14:25;4.50;58.40
55064;DHT22;40963;52.168;21.296;2023-04-03T10:25:20;4.60;59.10
55064;DHT22;40963;52.168;21.296;2023-04-03T10:34:04;4.60;58.40
55064;DHT22;40963;52.168;21.296;2023-04-03T10:37:01;4.50;59.20
55064;DHT22;40963;52.168;21.296;2023-04-03T10:39:35;4.30;57.40
55064;DHT22;40963;52.168;21.296;2023-04-03T10:53:03;4.30;58.20
55064;DHT22;40963;52.168;21.296;2023-04-03T10:58:20;4.60;58.20
55064;DHT22;40963;52.168;21.296;2023-04-03T11:00:51;4.60;58.00
55064;DHT22;40963;52.168;21.296;2023-04-03T11:05:49;4.30;55.80
55064;DHT22;40963;52.168;21.296;2023-04-03T11:08:42;4.40;56.30
55064;DHT22;40963;52.168;21.296;2023-04-03T11:11:13;4.40;57.10
55064;DHT22;40963;52.168;21.296;2023-04-03T11:16:34;4.60;56.90
55064;DHT22;40963;52.168;21.296;2023-04-03T11:19:14;4.60;57.50
55064;DHT22;40963;52.168;21.296;2023-04-03T11:21:54;4.60;58.60
55064;DHT22;40963;52.168;21.296;2023-04-03T11:24:25;4.70;57.90
55064;DHT22;40963;52.168;21.296;2023-04-03T11:26:53;4.70;57.90
55064;DHT22;40963;52.168;21.296;2023-04-03T11:29:23;4.80;57.50
55064;DHT22;40963;52.168;21.296;2023-04-03T11:36:56;4.80;55.30
55064;DHT22;40963;52.168;21.296;2023-04-03T11:39:31;4.70;56.30
55064;DHT22;40963;52.168;21.296;2023-04-03T11:42:33;4.80;56.50
55064;DHT22;40963;52.168;21.296;2023-04-03T11:53:03;4.70;55.90
55064;DHT22;40963;52.168;21.296;2023-04-03T12:00:54;5.20;57.10
55064;DHT22;40963;52.168;21.296;2023-04-03T12:05:56;5.30;54.60
55064;DHT22;40963;52.168;21.296;2023-04-03T12:11:24;5.00;54.80
55064;DHT22;40963;52.168;21.296;2023-04-03T12:16:33;4.80;55.40
55064;DHT22;40963;52.168;21.296;2023-04-03T12:19:35;4.90;56.00
55064;DHT22;40963;52.168;21.296;2023-04-03T12:24:30;5.10;55.50
55064;DHT22;40963;52.168;21.296;2023-04-03T12:27:20;5.20;54.70
55064;DHT22;40963;52.168;21.296;2023-04-03T12:29:58;5.20;54.00
55064;DHT22;40963;52.168;21.296;2023-04-03T12:46:22;5.30;54.20
55064;DHT22;40963;52.168;21.296;2023-04-03T12:48:54;5.30;54.20
55064;DHT22;40963;52.168;21.296;2023-04-03T12:53:58;5.20;53.70
55064;DHT22;40963;52.168;21.296;2023-04-03T12:56:30;5.10;53.40
55064;DHT22;40963;52.168;21.296;2023-04-03T12:59:14;5.10;53.50
55064;DHT22;40963;52.168;21.296;2023-04-03T13:01:42;5.20;54.20
55064;DHT22;40963;52.168;21.296;2023-04-03T13:04:11;5.40;54.20
55064;DHT22;40963;52.168;21.296;2023-04-03T13:06:44;5.60;53.60
55064;DHT22;40963;52.168;21.296;2023-04-03T13:09:36;5.70;53.10
55064;DHT22;40963;52.168;21.296;2023-04-03T13:12:13;5.70;53.60
55064;DHT22;40963;52.168;21.296;2023-04-03T13:14:49;5.60;53.10
55064;DHT22;40963;52.168;21.296;2023-04-03T13:17:17;5.60;53.90
55064;DHT22;40963;52.168;21.296;2023-04-03T13:19:44;5.60;54.70
55064;DHT22;40963;52.168;21.296;2023-04-03T13:22:34;5.60;54.10
55064;DHT22;40963;52.168;21.296;2023-04-03T13:25:07;5.70;51.70
55064;DHT22;40963;52.168;21.296;2023-04-03T13:27:34;5.70;52.70
55064;DHT22;40963;52.168;21.296;2023-04-03T13:30:02;5.80;52.70
55064;DHT22;40963;52.168;21.296;2023-04-03T13:32:29;5.90;52.80
55064;DHT22;40963;52.168;21.296;2023-04-03T13:34:56;5.90;52.30
55064;DHT22;40963;52.168;21.296;2023-04-03T13:42:35;5.50;51.90
55064;DHT22;40963;52.168;21.296;2023-04-03T13:45:25;5.50;52.00
55064;DHT22;40963;52.168;21.296;2023-04-03T13:48:06;5.50;51.90
55064;DHT22;40963;52.168;21.296;2023-04-03T13:50:33;5.50;52.10
55064;DHT22;40963;52.168;21.296;2023-04-03T13:53:11;5.50;52.10
55064;DHT22;40963;52.168;21.296;2023-04-03T13:55:51;5.50;52.40
55064;DHT22;40963;52.168;21.296;2023-04-03T13:58:29;5.50;52.40
55064;DHT22;40963;52.168;21.296;2023-04-03T14:01:21;5.40;53.00
55064;DHT22;40963;52.168;21.296;2023-04-03T14:03:56;5.60;53.50
55064;DHT22;40963;52.168;21.296;2023-04-03T14:06:23;5.60;53.00
55064;DHT22;40963;52.168;21.296;2023-04-03T14:08:49;5.60;52.50
55064;DHT22;40963;52.168;21.296;2023-04-03T14:11:21;5.50;52.50
55064;DHT22;40963;52.168;21.296;2023-04-03T14:13:48;5.50;53.10
55064;DHT22;40963;52.168;21.296;2023-04-03T14:16:18;5.50;53.50
55064;DHT22;40963;52.168;21.296;2023-04-03T14:18:45;5.50;53.20
55064;DHT22;40963;52.168;21.296;2023-04-03T14:21:13;5.40;53.50
55064;DHT22;40963;52.168;21.296;2023-04-03T14:23:40;5.40;53.80
55064;DHT22;40963;52.168;21.296;2023-04-03T14:26:15;5.50;53.90
55064;DHT22;40963;52.168;21.296;2023-04-03T14:28:43;5.40;53.90
55064;DHT22;40963;52.168;21.296;2023-04-03T14:31:10;5.40;53.50
55064;DHT22;40963;52.168;21.296;2023-04-03T14:33:36;5.40;53.80
55064;DHT22;40963;52.168;21.296;2023-04-03T14:36:12;5.40;53.20
55064;DHT22;40963;52.168;21.296;2023-04-03T14:38:38;5.30;53.50
55064;DHT22;40963;52.168;21.296;2023-04-03T14:41:04;5.30;53.50
55064;DHT22;40963;52.168;21.296;2023-04-03T14:43:30;5.30;53.70
55064;DHT22;40963;52.168;21.296;2023-04-03T14:45:55;5.20;53.90
55064;DHT22;40963;52.168;21.296;2023-04-03T14:48:24;5.20;54.50
55064;DHT22;40963;52.168;21.296;2023-04-03T14:50:51;5.20;54.70
55064;DHT22;40963;52.168;21.296;2023-04-03T14:53:18;5.20;54.80
55064;DHT22;40963;52.168;21.296;2023-04-03T14:55:48;5.20;54.90
55064;DHT22;40963;52.168;21.296;2023-04-03T14:58:16;5.20;55.20
55064;DHT22;40963;52.168;21.296;2023-04-03T15:00:43;5.20;55.00
55064;DHT22;40963;52.168;21.296;2023-04-03T15:03:21;5.10;55.00
55064;DHT22;40963;52.168;21.296;2023-04-03T15:05:48;5.10;55.70
55064;DHT22;40963;52.168;21.296;2023-04-03T15:08:25;5.10;54.90
55064;DHT22;40963;52.168;21.296;2023-04-03T15:10:52;5.00;55.20
55064;DHT22;40963;52.168;21.296;2023-04-03T15:13:19;5.00;55.50
55064;DHT22;40963;52.168;21.296;2023-04-03T15:15:47;5.00;55.60
55064;DHT22;40963;52.168;21.296;2023-04-03T15:18:16;5.00;55.50
55064;DHT22;40963;52.168;21.296;2023-04-03T15:20:43;4.90;55.60
55064;DHT22;40963;52.168;21.296;2023-04-03T15:23:12;4.90;55.80
55064;DHT22;40963;52.168;21.296;2023-04-03T15:25:37;5.00;55.80
55064;DHT22;40963;52.168;21.296;2023-04-03T15:28:06;5.00;55.70
55064;DHT22;40963;52.168;21.296;2023-04-03T15:30:31;4.90;55.70
55064;DHT22;40963;52.168;21.296;2023-04-03T15:32:57;4.90;55.70
55064;DHT22;40963;52.168;21.296;2023-04-03T15:35:23;4.90;55.60
55064;DHT22;40963;52.168;21.296;2023-04-03T15:37:49;4.80;55.20
55064;DHT22;40963;52.168;21.296;2023-04-03T15:40:14;4.80;55.10
55064;DHT22;40963;52.168;21.296;2023-04-03T15:42:40;4.80;54.90
55064;DHT22;40963;52.168;21.296;2023-04-03T15:45:07;4.80;54.90
55064;DHT22;40963;52.168;21.296;2023-04-03T15:47:33;4.80;55.10
55064;DHT22;40963;52.168;21.296;2023-04-03T15:49:58;4.70;55.10
55064;DHT22;40963;52.168;21.296;2023-04-03T15:52:24;4.70;55.30
55064;DHT22;40963;52.168;21.296;2023-04-03T15:54:50;4.80;55.70
55064;DHT22;40963;52.168;21.296;2023-04-03T15:57:15;4.70;55.80
55064;DHT22;40963;52.168;21.296;2023-04-03T15:59:41;4.70;56.00
55064;DHT22;40963;52.168;21.296;2023-04-03T16:02:08;4.70;56.20
55064;DHT22;40963;52.168;21.296;2023-04-03T16:04:34;4.70;56.50
55064;DHT22;40963;52.168;21.296;2023-04-03T16:07:02;4.70;56.70
55064;DHT22;40963;52.168;21.296;2023-04-03T16:09:27;4.70;57.00
55064;DHT22;40963;52.168;21.296;2023-04-03T16:11:53;4.70;57.00
55064;DHT22;40963;52.168;21.296;2023-04-03T16:14:18;4.60;56.90
55064;DHT22;40963;52.168;21.296;2023-04-03T16:16:44;4.60;56.70
55064;DHT22;40963;52.168;21.296;2023-04-03T16:19:10;4.60;56.90
55064;DHT22;40963;52.168;21.296;2023-04-03T16:21:36;4.60;57.30
55064;DHT22;40963;52.168;21.296;2023-04-03T16:24:03;4.60;57.60
55064;DHT22;40963;52.168;21.296;2023-04-03T16:26:29;4.60;57.70
55064;DHT22;40963;52.168;21.296;2023-04-03T16:28:54;4.50;57.70
55064;DHT22;40963;52.168;21.296;2023-04-03T16:31:20;4.50;57.90
55064;DHT22;40963;52.168;21.296;2023-04-03T16:33:46;4.50;57.50
55064;DHT22;40963;52.168;21.296;2023-04-03T16:36:12;4.40;57.20
55064;DHT22;40963;52.168;21.296;2023-04-03T16:38:38;4.40;57.10
55064;DHT22;40963;52.168;21.296;2023-04-03T16:41:03;4.40;57.40
55064;DHT22;40963;52.168;21.296;2023-04-03T16:43:32;4.40;57.60
55064;DHT22;40963;52.168;21.296;2023-04-03T16:45:58;4.40;57.90
55064;DHT22;40963;52.168;21.296;2023-04-03T16:48:24;4.30;57.90
55064;DHT22;40963;52.168;21.296;2023-04-03T16:50:50;4.30;57.80
55064;DHT22;40963;52.168;21.296;2023-04-03T16:53:22;4.30;57.90
55064;DHT22;40963;52.168;21.296;2023-04-03T16:55:49;4.30;58.20
55064;DHT22;40963;52.168;21.296;2023-04-03T16:58:14;4.30;58.20
55064;DHT22;40963;52.168;21.296;2023-04-03T17:00:41;4.20;58.20
55064;DHT22;40963;52.168;21.296;2023-04-03T17:03:07;4.20;58.40
55064;DHT22;40963;52.168;21.296;2023-04-03T17:05:32;4.20;58.50
55064;DHT22;40963;52.168;21.296;2023-04-03T17:07:58;4.20;58.60
55064;DHT22;40963;52.168;21.296;2023-04-03T17:10:24;4.20;58.60
55064;DHT22;40963;52.168;21.296;2023-04-03T17:12:50;4.20;58.40
55064;DHT22;40963;52.168;21.296;2023-04-03T17:15:16;4.10;58.10
55064;DHT22;40963;52.168;21.296;2023-04-03T17:17:42;4.10;58.10
55064;DHT22;40963;52.168;21.296;2023-04-03T17:20:08;4.10;58.10
55064;DHT22;40963;52.168;21.296;2023-04-03T17:22:34;4.10;58.20
55064;DHT22;40963;52.168;21.296;2023-04-03T17:25:00;4.10;58.30
55064;DHT22;40963;52.168;21.296;2023-04-03T17:27:26;4.00;58.40